createdAt,value
2019-04-25T00:01:49.667Z,97.86
2019-04-25T00:04:18.475Z,99.29
2019-04-25T00:06:47.447Z,99.21
2019-04-25T00:09:18.784Z,97.86
2019-04-25T00:11:48.913Z,99.40
2019-04-25T00:14:17.779Z,100.00
2019-04-25T00:16:51.597Z,100.00
2019-04-25T00:19:21.910Z,100.00
2019-04-25T00:21:59.270Z,100.00
2019-04-25T00:24:45.137Z,100.00
2019-04-25T00:27:14.018Z,100.00
2019-04-25T00:29:43.936Z,100.00
2019-04-25T00:32:13.386Z,100.00
2019-04-25T00:34:44.250Z,100.00
2019-04-25T00:37:13.942Z,100.00
2019-04-25T00:39:45.060Z,100.00
2019-04-25T00:42:14.320Z,100.00
2019-04-25T00:44:44.799Z,100.00
2019-04-25T00:47:13.826Z,100.00
2019-04-25T00:49:44.041Z,100.00
2019-04-25T00:52:13.029Z,100.00
2019-04-25T00:54:43.062Z,100.00
2019-04-25T00:57:12.209Z,100.00
2019-04-25T00:59:55.642Z,100.00
2019-04-25T01:02:37.871Z,100.00
2019-04-25T01:05:09.488Z,100.00
2019-04-25T01:07:38.244Z,100.00
2019-04-25T01:10:08.587Z,100.00
2019-04-25T01:12:37.358Z,100.00
2019-04-25T01:15:07.253Z,100.00
2019-04-25T01:17:36.018Z,100.00
2019-04-25T01:20:05.856Z,100.00
2019-04-25T01:22:34.691Z,100.00
2019-04-25T01:25:03.907Z,100.00
2019-04-25T01:27:33.292Z,100.00
2019-04-25T01:30:02.156Z,100.00
2019-04-25T01:32:35.073Z,100.00
2019-04-25T01:35:16.353Z,100.00
2019-04-25T01:37:51.800Z,100.00
2019-04-25T01:40:39.595Z,100.00
2019-04-25T01:43:21.369Z,100.00
2019-04-25T01:45:50.175Z,100.00
2019-04-25T01:48:18.969Z,100.00
2019-04-25T01:50:49.285Z,100.00
2019-04-25T01:53:18.388Z,100.00
2019-04-25T01:55:56.115Z,100.00
2019-04-25T01:58:18.070Z,100.00
2019-04-25T02:00:48.283Z,100.00
2019-04-25T02:03:17.367Z,100.00
2019-04-25T02:05:46.229Z,100.00
2019-04-25T02:08:15.204Z,100.00
2019-04-25T02:10:45.795Z,100.00
2019-04-25T02:13:16.890Z,100.00
2019-04-25T02:15:45.884Z,100.00
2019-04-25T02:18:14.739Z,100.00
2019-04-25T02:20:43.746Z,100.00
2019-04-25T02:23:14.093Z,100.00
2019-04-25T02:25:44.301Z,100.00
2019-04-25T02:28:15.575Z,100.00
2019-04-25T02:30:45.363Z,100.00
2019-04-25T02:33:14.344Z,100.00
2019-04-25T02:35:46.590Z,100.00
2019-04-25T02:38:14.689Z,100.00
2019-04-25T02:40:45.402Z,100.00
2019-04-25T02:43:15.428Z,100.00
2019-04-25T02:46:03.982Z,100.00
2019-04-25T02:48:50.335Z,100.00
2019-04-25T02:51:28.636Z,100.00
2019-04-25T02:53:57.937Z,100.00
2019-04-25T02:56:34.088Z,100.00
2019-04-25T02:58:58.488Z,100.00
2019-04-25T03:01:27.443Z,100.00
2019-04-25T03:03:57.586Z,100.00
2019-04-25T03:06:26.963Z,100.00
2019-04-25T03:08:56.842Z,100.00
2019-04-25T03:11:26.128Z,100.00
2019-04-25T03:13:55.000Z,100.00
2019-04-25T03:16:25.105Z,100.00
2019-04-25T03:19:02.907Z,100.00
2019-04-25T03:21:35.217Z,100.00
2019-04-25T03:24:08.157Z,100.00
2019-04-25T03:26:40.387Z,100.00
2019-04-25T03:29:13.659Z,100.00
2019-04-25T08:02:43.577Z,83.97
2019-04-25T08:05:16.641Z,82.82
2019-04-25T08:07:45.575Z,81.33
2019-04-25T08:10:15.375Z,77.82
2019-04-25T08:12:47.286Z,77.41
2019-04-25T08:15:35.025Z,76.38
2019-04-25T08:18:05.755Z,76.01
2019-04-25T08:20:35.881Z,74.31
2019-04-25T08:23:06.310Z,73.19
2019-04-25T08:25:38.882Z,73.81
2019-04-25T08:28:05.724Z,71.88
2019-04-25T08:30:35.634Z,69.99
2019-04-25T08:33:05.662Z,69.27
2019-04-25T08:35:35.495Z,68.70
2019-04-25T08:38:05.837Z,69.24
2019-04-25T08:40:37.071Z,66.59
2019-04-25T08:43:05.553Z,66.70
2019-04-25T08:45:35.677Z,64.54
2019-04-25T08:48:05.069Z,64.72
2019-04-25T08:50:41.027Z,64.83
2019-04-25T08:53:10.221Z,64.56
2019-04-25T08:55:57.403Z,62.94
2019-04-25T08:58:41.237Z,63.28
2019-04-25T09:01:20.699Z,63.78
2019-04-25T09:03:54.360Z,63.95
2019-04-25T09:06:24.360Z,62.41
2019-04-25T09:08:54.015Z,61.91
2019-04-25T09:11:24.370Z,60.71
2019-04-25T09:13:53.740Z,62.16
2019-04-25T09:16:23.954Z,60.81
2019-04-25T09:18:53.949Z,59.84
2019-04-25T09:21:23.801Z,57.44
2019-04-25T09:23:53.551Z,59.14
2019-04-25T09:26:23.991Z,57.40
2019-04-25T09:28:53.632Z,56.70
2019-04-25T09:31:23.620Z,57.30
2019-04-25T09:33:54.831Z,56.18
2019-04-25T09:36:24.091Z,53.55
2019-04-25T09:38:55.482Z,55.60
2019-04-25T09:41:24.381Z,56.43
2019-04-25T09:43:56.321Z,55.21
2019-04-25T09:46:30.983Z,54.13
2019-04-25T09:49:14.208Z,50.97
2019-04-25T09:51:47.342Z,52.31
2019-04-25T09:54:42.392Z,49.74
2019-04-25T09:57:29.392Z,48.33
2019-04-25T09:59:58.124Z,48.44
2019-04-25T10:02:27.236Z,47.80
2019-04-25T10:04:55.996Z,47.33
2019-04-25T10:07:24.852Z,45.54
2019-04-25T10:09:54.765Z,46.37
2019-04-25T10:12:23.590Z,50.12
2019-04-25T10:15:04.781Z,47.48
2019-04-25T10:17:33.877Z,47.06
2019-04-25T10:20:02.715Z,46.85
2019-04-25T10:22:31.460Z,45.46
2019-04-25T10:25:00.866Z,47.23
2019-04-25T10:27:29.727Z,45.80
2019-04-25T10:29:58.491Z,43.89
2019-04-25T10:32:27.492Z,43.74
2019-04-25T10:34:56.311Z,46.23
2019-04-25T10:37:25.112Z,46.23
2019-04-25T10:39:55.531Z,44.43
2019-04-25T10:42:24.646Z,46.47
2019-04-25T10:44:56.269Z,47.38
2019-04-25T10:47:23.997Z,48.43
2019-04-25T10:49:53.677Z,46.70
2019-04-25T10:52:23.445Z,46.60
2019-04-25T10:54:54.176Z,47.75
2019-04-25T10:57:24.952Z,47.74
2019-04-25T11:00:05.104Z,47.82
2019-04-25T11:02:24.634Z,46.80
2019-04-25T11:04:59.239Z,45.74
2019-04-25T11:07:28.105Z,47.07
2019-04-25T11:09:57.265Z,45.74
2019-04-25T11:12:26.243Z,47.03
2019-04-25T11:14:56.252Z,45.72
2019-04-25T11:17:25.097Z,44.81
2019-04-25T11:19:55.212Z,46.38
2019-04-25T11:22:24.094Z,45.90
2019-04-25T11:24:53.095Z,45.06
2019-04-25T11:27:23.757Z,46.20
2019-04-25T11:30:02.853Z,47.80
2019-04-25T11:32:26.529Z,44.53
2019-04-25T11:34:55.354Z,44.26
2019-04-25T11:37:25.973Z,44.39
2019-04-25T11:40:01.499Z,45.29
2019-04-25T11:42:30.311Z,45.83
2019-04-25T11:44:59.204Z,44.65
2019-04-25T11:47:28.149Z,44.27
2019-04-25T11:49:56.992Z,45.69
2019-04-25T11:52:28.397Z,43.88
2019-04-25T11:54:56.316Z,45.09
2019-04-25T11:57:25.215Z,44.62
2019-04-25T11:59:54.581Z,43.25
2019-04-25T12:02:26.060Z,43.51
2019-04-25T12:04:55.302Z,44.77
2019-04-25T12:07:24.228Z,45.11
2019-04-25T12:09:54.481Z,43.90
2019-04-25T12:12:23.794Z,43.93
2019-04-25T12:14:54.349Z,45.46
2019-04-25T12:17:23.536Z,44.46
2019-04-25T12:19:53.943Z,45.87
2019-04-25T12:22:23.824Z,43.95
2019-04-25T12:24:54.368Z,44.19
2019-04-25T12:27:23.334Z,44.97
2019-04-25T12:29:52.450Z,45.15
2019-04-25T12:32:21.374Z,43.75
2019-04-25T12:34:51.634Z,42.68
2019-04-25T12:37:20.525Z,43.17
2019-04-25T12:39:49.417Z,43.93
2019-04-25T12:42:18.215Z,41.42
2019-04-25T12:44:58.201Z,41.73
2019-04-25T12:47:28.610Z,41.46
2019-04-25T12:49:57.923Z,39.80
2019-04-25T12:52:26.814Z,41.01
2019-04-25T12:54:58.074Z,40.32
2019-04-25T12:57:26.379Z,40.55
2019-04-25T12:59:55.539Z,39.03
2019-04-25T13:02:24.429Z,40.20
2019-04-25T13:04:55.211Z,40.72
2019-04-25T13:07:23.838Z,39.83
2019-04-25T13:09:53.693Z,41.91
2019-04-25T13:12:23.395Z,40.71
2019-04-25T13:14:52.301Z,40.64
2019-04-25T13:17:21.167Z,42.25
2019-04-25T13:19:49.974Z,40.72
2019-04-25T13:22:19.054Z,42.45
2019-04-25T13:24:47.865Z,41.82
2019-04-25T13:27:25.136Z,41.18
2019-04-25T13:30:21.998Z,40.48
2019-04-25T13:33:08.581Z,40.31
2019-04-25T13:35:43.385Z,40.29
2019-04-25T13:38:12.108Z,40.29
2019-04-25T13:40:41.449Z,39.56
2019-04-25T13:43:10.503Z,39.61
2019-04-25T13:45:39.273Z,39.37
2019-04-25T13:48:08.076Z,38.33
2019-04-25T13:50:36.804Z,38.90
2019-04-25T13:53:06.075Z,38.99
2019-04-25T13:55:34.822Z,38.66
2019-04-25T13:58:04.362Z,38.39
2019-04-25T14:00:34.861Z,37.98
2019-04-25T14:03:04.135Z,39.46
2019-04-25T14:05:34.017Z,38.17
2019-04-25T14:08:03.988Z,39.43
2019-04-25T14:10:34.231Z,39.20
2019-04-25T14:13:03.578Z,38.54
2019-04-25T14:15:34.362Z,38.54
2019-04-25T14:18:24.051Z,38.94
2019-04-25T14:20:56.991Z,37.80
2019-04-25T14:23:25.817Z,38.61
2019-04-25T14:25:54.547Z,38.87
2019-04-25T14:28:24.895Z,38.65
2019-04-25T14:30:53.791Z,38.71
2019-04-25T14:33:25.296Z,39.72
2019-04-25T14:35:54.818Z,39.27
2019-04-25T14:38:25.084Z,39.47
2019-04-25T14:40:54.453Z,39.68
2019-04-25T14:43:24.103Z,38.48
2019-04-25T14:45:52.951Z,38.22
2019-04-25T14:48:22.563Z,38.21
2019-04-25T14:50:52.346Z,38.37
2019-04-25T14:53:21.490Z,37.04
2019-04-25T14:56:01.998Z,38.38
2019-04-25T14:58:33.402Z,36.51
2019-04-25T15:01:02.208Z,37.72
2019-04-25T15:03:31.803Z,36.22
2019-04-25T15:06:00.685Z,37.37
2019-04-25T15:08:30.594Z,38.33
2019-04-25T15:10:59.430Z,37.56
2019-04-25T15:13:28.480Z,38.96
2019-04-25T15:15:57.323Z,38.29
2019-04-25T15:18:26.761Z,39.16
2019-04-25T15:20:55.471Z,40.21
2019-04-25T15:23:25.340Z,39.49
2019-04-25T15:25:54.325Z,39.74
2019-04-25T15:28:24.413Z,39.67
2019-04-25T15:30:53.510Z,40.18
2019-04-25T15:33:22.253Z,39.76
2019-04-25T15:35:56.883Z,39.73
2019-04-25T15:38:35.911Z,40.16
2019-04-25T15:41:30.451Z,40.34
2019-04-25T15:44:18.541Z,39.91
2019-04-25T15:46:47.288Z,40.50
2019-04-25T15:49:16.368Z,39.24
2019-04-25T15:51:45.291Z,40.86
2019-04-25T15:54:14.196Z,40.75
2019-04-25T15:56:42.977Z,40.82
2019-04-25T15:59:12.161Z,41.23
2019-04-25T16:01:40.976Z,40.19
2019-04-25T16:04:09.871Z,40.62
2019-04-25T16:06:38.695Z,40.41
2019-04-25T16:09:10.360Z,39.90
2019-04-25T16:11:38.470Z,40.79
2019-04-25T16:14:07.419Z,40.99
2019-04-25T16:16:36.175Z,41.22
2019-04-25T16:19:05.036Z,40.68
2019-04-25T16:21:33.901Z,40.99
2019-04-25T16:24:03.321Z,41.37
2019-04-25T16:26:32.153Z,41.43
2019-04-25T16:29:00.921Z,41.30
2019-04-25T16:31:30.455Z,41.11
2019-04-25T16:33:59.317Z,41.63
2019-04-25T16:36:28.266Z,41.45
2019-04-25T16:38:57.035Z,41.20
2019-04-25T16:41:25.914Z,41.85
2019-04-25T16:43:58.846Z,42.10
2019-04-25T16:46:28.794Z,42.05
2019-04-25T16:48:57.543Z,42.49
2019-04-25T16:51:26.406Z,42.44
2019-04-25T16:53:55.226Z,41.95
2019-04-25T16:56:24.174Z,42.14
2019-04-25T16:58:53.075Z,42.14
2019-04-25T17:01:21.905Z,43.19
2019-04-25T17:03:50.705Z,42.07
2019-04-25T17:06:19.776Z,42.34
2019-04-25T17:08:48.881Z,42.36
2019-04-25T17:11:18.001Z,42.78
2019-04-25T17:13:55.403Z,42.53
2019-04-25T17:16:58.425Z,42.93
2019-04-25T17:19:52.471Z,42.54
2019-04-25T17:22:21.689Z,41.27
2019-04-25T17:24:50.719Z,43.23
2019-04-25T17:27:20.318Z,42.22
2019-04-25T17:29:49.189Z,41.68
2019-04-25T17:32:53.558Z,42.15
2019-04-25T17:35:32.045Z,42.17
2019-04-25T17:38:04.879Z,42.59
2019-04-25T17:40:33.926Z,42.07
2019-04-25T17:43:10.942Z,42.78
2019-04-25T17:45:34.740Z,41.96
2019-04-25T17:48:04.460Z,41.96
2019-04-25T17:50:34.228Z,42.91
2019-04-25T17:53:03.124Z,44.20
2019-04-25T17:55:33.163Z,43.69
2019-04-25T17:58:02.218Z,45.93
2019-04-25T18:00:39.705Z,46.39
2019-04-25T18:03:10.839Z,48.19
2019-04-25T18:05:39.771Z,49.73
2019-04-25T18:08:08.633Z,48.26
2019-04-25T18:10:37.773Z,51.38
2019-04-25T18:13:09.416Z,52.60
2019-04-25T18:16:02.882Z,53.50
2019-04-25T18:18:40.216Z,55.00
2019-04-25T18:21:09.179Z,56.93
2019-04-25T18:24:03.216Z,56.60
2019-04-25T18:26:37.427Z,56.94
2019-04-25T18:29:09.871Z,57.27
2019-04-25T18:31:39.582Z,57.48
2019-04-25T18:34:12.344Z,56.63
2019-04-25T18:37:00.177Z,56.78
2019-04-25T18:39:36.603Z,52.74
2019-04-25T18:42:10.422Z,51.29
2019-04-25T18:44:42.566Z,50.09
2019-04-25T18:47:11.316Z,50.58
2019-04-25T18:49:42.506Z,49.48
2019-04-25T18:52:21.813Z,49.25
2019-04-25T18:54:57.728Z,49.73
2019-04-25T18:57:42.053Z,48.91
2019-04-25T19:00:39.901Z,49.36
2019-04-25T19:03:28.995Z,49.33
2019-04-25T19:06:00.579Z,49.15
2019-04-25T19:08:29.678Z,49.27
2019-04-25T19:10:58.653Z,48.54
2019-04-25T19:13:27.466Z,49.46
2019-04-25T19:15:56.521Z,48.09
2019-04-25T19:18:25.278Z,49.26
2019-04-25T19:20:54.588Z,47.91
2019-04-25T19:23:23.378Z,47.97
2019-04-25T19:25:52.541Z,48.73
2019-04-25T19:28:21.647Z,48.92
2019-04-25T19:30:51.389Z,48.07
2019-04-25T19:33:21.952Z,49.18
2019-04-25T19:35:51.826Z,48.75
2019-04-25T19:38:20.820Z,48.72
2019-04-25T19:41:09.666Z,48.92
2019-04-25T19:43:54.230Z,48.91
2019-04-25T19:46:37.810Z,48.50
2019-04-25T19:49:07.452Z,47.56
2019-04-25T19:51:37.271Z,48.23
2019-04-25T19:54:07.481Z,48.42
2019-04-25T19:56:36.857Z,48.31
2019-04-25T19:59:06.346Z,48.16
2019-04-25T20:01:35.356Z,48.48
2019-04-25T20:04:15.965Z,48.79
2019-04-25T20:07:03.074Z,48.57
2019-04-25T20:09:49.855Z,48.88
2019-04-25T20:12:18.908Z,52.72
2019-04-25T20:14:47.861Z,55.37
2019-04-25T20:17:16.624Z,59.59
2019-04-25T20:19:45.958Z,62.12
2019-04-25T20:22:14.687Z,62.59
2019-04-25T20:24:46.827Z,63.54
2019-04-25T20:27:15.628Z,64.95
2019-04-25T20:29:45.260Z,66.47
2019-04-25T20:32:15.187Z,66.43
2019-04-25T20:34:44.562Z,66.64
2019-04-25T20:37:14.492Z,68.03
2019-04-25T20:39:43.301Z,68.59
2019-04-25T20:42:14.763Z,69.29
2019-04-25T20:44:43.889Z,70.47
2019-04-25T20:47:12.730Z,68.93
2019-04-25T20:49:41.505Z,68.40
2019-04-25T20:52:10.280Z,67.28
2019-04-25T20:54:39.015Z,68.56
2019-04-25T20:57:07.836Z,69.57
2019-04-25T20:59:36.577Z,69.86
2019-04-25T21:02:06.066Z,69.09
2019-04-25T21:04:41.952Z,69.72
2019-04-25T21:07:11.227Z,69.58
2019-04-25T21:09:40.518Z,71.55
2019-04-25T21:12:09.820Z,69.63
2019-04-25T21:14:56.502Z,71.00
2019-04-25T21:17:43.256Z,72.08
2019-04-25T21:20:12.460Z,71.75
2019-04-25T21:22:41.443Z,71.87
2019-04-25T21:25:10.487Z,71.94
2019-04-25T21:27:39.374Z,71.25
2019-04-25T21:30:09.811Z,71.19
2019-04-25T21:32:53.394Z,72.02
2019-04-25T21:35:23.385Z,72.80
2019-04-25T21:37:53.458Z,70.12
2019-04-25T21:40:38.771Z,69.68
2019-04-25T21:43:11.455Z,70.03
2019-04-25T21:45:40.500Z,70.43
2019-04-25T21:48:09.605Z,70.39
2019-04-25T21:50:38.650Z,69.16
2019-04-25T21:53:07.756Z,69.65
2019-04-25T21:55:36.842Z,70.61
2019-04-25T21:58:06.004Z,71.42
2019-04-25T22:00:53.807Z,70.27
2019-04-25T22:03:24.802Z,70.30
2019-04-25T22:05:54.328Z,70.36
2019-04-25T22:08:24.183Z,72.72
2019-04-25T22:10:53.396Z,72.82
2019-04-25T22:13:22.339Z,72.62
2019-04-25T22:15:51.664Z,73.78
2019-04-25T22:18:20.802Z,74.56
2019-04-25T22:20:49.575Z,73.57
2019-04-25T22:23:18.587Z,73.33
2019-04-25T22:25:47.637Z,75.95
2019-04-25T22:28:16.689Z,75.20
2019-04-25T22:30:47.715Z,76.72
2019-04-25T22:33:41.339Z,76.40
2019-04-25T22:36:13.623Z,77.45
2019-04-25T22:38:42.565Z,78.30
2019-04-25T22:41:11.646Z,76.59
2019-04-25T22:43:44.028Z,61.88
2019-04-25T22:46:25.210Z,62.44
2019-04-25T22:48:49.300Z,55.30
2019-04-25T22:51:18.378Z,53.89
2019-04-25T22:53:47.743Z,55.77
2019-04-25T22:56:16.589Z,55.26
2019-04-25T22:58:45.520Z,55.38
2019-04-25T23:01:46.218Z,53.69
2019-04-25T23:04:25.296Z,54.49
2019-04-25T23:06:54.036Z,56.56
2019-04-25T23:09:22.840Z,57.47
2019-04-25T23:11:52.001Z,59.42
2019-04-25T23:14:21.003Z,59.62
2019-04-25T23:16:49.761Z,60.92
2019-04-25T23:19:18.568Z,60.91
2019-04-25T23:21:47.505Z,61.75
2019-04-25T23:24:17.888Z,62.32
2019-04-25T23:27:14.834Z,62.94
2019-04-25T23:29:43.639Z,63.59
2019-04-25T23:32:12.657Z,64.34
2019-04-25T23:34:41.401Z,64.95
2019-04-25T23:37:10.917Z,65.64
2019-04-25T23:39:40.218Z,65.18
2019-04-25T23:42:09.328Z,65.00
2019-04-25T23:44:38.407Z,65.86
2019-04-25T23:47:08.243Z,66.88
2019-04-25T23:49:37.502Z,67.04
2019-04-25T23:52:07.372Z,67.53
2019-04-25T23:54:36.167Z,66.16
2019-04-25T23:57:05.286Z,67.19
2019-04-25T23:59:34.016Z,68.07
